sensor_id;sensor_type;location;lat;lon;timestamp;P1;durP1;ratioP1;P2;durP2;ratioP2
13866;SDS011;7003;46.982;15.248;2022-07-06T00:02:10;4.68;;;3.20;;
13866;SDS011;7003;46.982;15.248;2022-07-06T00:04:42;4.78;;;3.75;;
13866;SDS011;7003;46.982;15.248;2022-07-06T00:07:18;7.80;;;3.25;;
13866;SDS011;7003;46.982;15.248;2022-07-06T00:09:55;4.20;;;3.03;;
13866;SDS011;7003;46.982;15.248;2022-07-06T00:12:26;4.32;;;2.50;;
13866;SDS011;7003;46.982;15.248;2022-07-06T00:14:56;4.03;;;3.08;;
13866;SDS011;7003;46.982;15.248;2022-07-06T00:17:27;3.58;;;3.28;;
13866;SDS011;7003;46.982;15.248;2022-07-06T00:19:55;5.00;;;3.40;;
13866;SDS011;7003;46.982;15.248;2022-07-06T00:22:34;4.25;;;3.95;;
13866;SDS011;7003;46.982;15.248;2022-07-06T00:25:02;4.07;;;3.00;;
13866;SDS011;7003;46.982;15.248;2022-07-06T00:27:31;3.42;;;3.13;;
13866;SDS011;7003;46.982;15.248;2022-07-06T00:30:00;3.78;;;3.47;;
13866;SDS011;7003;46.982;15.248;2022-07-06T00:32:31;3.95;;;3.65;;
13866;SDS011;7003;46.982;15.248;2022-07-06T00:35:04;3.63;;;3.33;;
13866;SDS011;7003;46.982;15.248;2022-07-06T00:37:37;4.07;;;3.78;;
13866;SDS011;7003;46.982;15.248;2022-07-06T00:40:06;3.67;;;3.20;;
13866;SDS011;7003;46.982;15.248;2022-07-06T00:42:40;6.40;;;3.00;;
13866;SDS011;7003;46.982;15.248;2022-07-06T00:45:13;3.53;;;2.90;;
13866;SDS011;7003;46.982;15.248;2022-07-06T00:47:43;3.72;;;3.42;;
13866;SDS011;7003;46.982;15.248;2022-07-06T00:50:15;3.45;;;3.25;;
13866;SDS011;7003;46.982;15.248;2022-07-06T00:52:52;3.92;;;3.15;;
13866;SDS011;7003;46.982;15.248;2022-07-06T00:55:25;4.68;;;2.88;;
13866;SDS011;7003;46.982;15.248;2022-07-06T00:57:56;3.42;;;3.13;;
13866;SDS011;7003;46.982;15.248;2022-07-06T01:00:25;3.50;;;3.08;;
13866;SDS011;7003;46.982;15.248;2022-07-06T01:02:55;3.08;;;2.88;;
13866;SDS011;7003;46.982;15.248;2022-07-06T01:05:26;3.70;;;3.40;;
13866;SDS011;7003;46.982;15.248;2022-07-06T01:07:59;4.35;;;3.85;;
13866;SDS011;7003;46.982;15.248;2022-07-06T01:10:29;4.35;;;3.63;;
13866;SDS011;7003;46.982;15.248;2022-07-06T01:12:56;5.65;;;2.90;;
13866;SDS011;7003;46.982;15.248;2022-07-06T01:15:24;3.90;;;3.60;;
13866;SDS011;7003;46.982;15.248;2022-07-06T01:17:54;3.97;;;3.67;;
13866;SDS011;7003;46.982;15.248;2022-07-06T01:20:23;3.95;;;3.25;;
13866;SDS011;7003;46.982;15.248;2022-07-06T01:22:52;3.95;;;3.67;;
13866;SDS011;7003;46.982;15.248;2022-07-06T01:25:23;4.57;;;3.28;;
13866;SDS011;7003;46.982;15.248;2022-07-06T01:27:53;3.40;;;3.20;;
13866;SDS011;7003;46.982;15.248;2022-07-06T01:30:22;4.30;;;3.20;;
13866;SDS011;7003;46.982;15.248;2022-07-06T01:32:50;4.60;;;3.45;;
13866;SDS011;7003;46.982;15.248;2022-07-06T01:35:17;3.90;;;3.60;;
13866;SDS011;7003;46.982;15.248;2022-07-06T01:37:49;5.90;;;4.05;;
13866;SDS011;7003;46.982;15.248;2022-07-06T01:40:19;7.22;;;4.82;;
13866;SDS011;7003;46.982;15.248;2022-07-06T01:42:49;5.00;;;4.20;;
13866;SDS011;7003;46.982;15.248;2022-07-06T01:45:16;3.67;;;3.38;;
13866;SDS011;7003;46.982;15.248;2022-07-06T01:47:45;4.03;;;3.72;;
13866;SDS011;7003;46.982;15.248;2022-07-06T01:50:15;3.85;;;3.55;;
13866;SDS011;7003;46.982;15.248;2022-07-06T01:52:44;11.32;;;3.75;;
13866;SDS011;7003;46.982;15.248;2022-07-06T01:55:12;4.20;;;3.88;;
13866;SDS011;7003;46.982;15.248;2022-07-06T01:57:42;4.50;;;4.10;;
13866;SDS011;7003;46.982;15.248;2022-07-06T02:00:09;11.65;;;3.88;;
13866;SDS011;7003;46.982;15.248;2022-07-06T02:02:39;4.07;;;3.78;;
13866;SDS011;7003;46.982;15.248;2022-07-06T02:05:09;3.78;;;3.50;;
13866;SDS011;7003;46.982;15.248;2022-07-06T02:07:40;5.35;;;3.67;;
13866;SDS011;7003;46.982;15.248;2022-07-06T02:10:08;3.08;;;2.88;;
13866;SDS011;7003;46.982;15.248;2022-07-06T02:12:37;5.25;;;3.33;;
13866;SDS011;7003;46.982;15.248;2022-07-06T02:15:07;4.05;;;3.75;;
13866;SDS011;7003;46.982;15.248;2022-07-06T02:17:35;4.15;;;3.85;;
13866;SDS011;7003;46.982;15.248;2022-07-06T02:20:05;4.55;;;4.18;;
13866;SDS011;7003;46.982;15.248;2022-07-06T02:22:33;3.90;;;3.60;;
13866;SDS011;7003;46.982;15.248;2022-07-06T02:25:02;4.65;;;4.28;;
13866;SDS011;7003;46.982;15.248;2022-07-06T02:27:34;3.40;;;3.10;;
13866;SDS011;7003;46.982;15.248;2022-07-06T02:30:02;5.50;;;3.13;;
13866;SDS011;7003;46.982;15.248;2022-07-06T02:32:30;5.95;;;3.78;;
13866;SDS011;7003;46.982;15.248;2022-07-06T02:34:57;4.43;;;3.50;;
13866;SDS011;7003;46.982;15.248;2022-07-06T02:37:25;4.38;;;4.05;;
13866;SDS011;7003;46.982;15.248;2022-07-06T02:39:53;3.33;;;3.10;;
13866;SDS011;7003;46.982;15.248;2022-07-06T02:42:20;3.78;;;3.42;;
13866;SDS011;7003;46.982;15.248;2022-07-06T02:44:47;4.85;;;3.42;;
13866;SDS011;7003;46.982;15.248;2022-07-06T02:47:16;6.32;;;4.40;;
13866;SDS011;7003;46.982;15.248;2022-07-06T02:49:43;3.60;;;3.40;;
13866;SDS011;7003;46.982;15.248;2022-07-06T02:52:13;3.72;;;3.50;;
13866;SDS011;7003;46.982;15.248;2022-07-06T02:54:42;12.02;;;3.78;;
13866;SDS011;7003;46.982;15.248;2022-07-06T02:57:12;3.53;;;3.13;;
13866;SDS011;7003;46.982;15.248;2022-07-06T02:59:40;4.03;;;3.72;;
13866;SDS011;7003;46.982;15.248;2022-07-06T03:02:11;5.20;;;4.45;;
13866;SDS011;7003;46.982;15.248;2022-07-06T03:04:42;5.10;;;4.47;;
13866;SDS011;7003;46.982;15.248;2022-07-06T03:07:10;3.58;;;3.28;;
13866;SDS011;7003;46.982;15.248;2022-07-06T03:09:41;3.92;;;3.15;;
13866;SDS011;7003;46.982;15.248;2022-07-06T03:12:08;4.85;;;3.58;;
13866;SDS011;7003;46.982;15.248;2022-07-06T03:14:41;4.95;;;4.60;;
13866;SDS011;7003;46.982;15.248;2022-07-06T03:17:09;3.45;;;3.25;;
13866;SDS011;7003;46.982;15.248;2022-07-06T03:19:39;6.07;;;4.13;;
13866;SDS011;7003;46.982;15.248;2022-07-06T03:22:11;4.15;;;3.85;;
13866;SDS011;7003;46.982;15.248;2022-07-06T03:24:42;7.53;;;4.22;;
13866;SDS011;7003;46.982;15.248;2022-07-06T03:27:09;5.05;;;4.55;;
13866;SDS011;7003;46.982;15.248;2022-07-06T03:29:37;7.75;;;4.60;;
13866;SDS011;7003;46.982;15.248;2022-07-06T03:32:05;4.68;;;4.28;;
13866;SDS011;7003;46.982;15.248;2022-07-06T03:34:33;5.03;;;3.55;;
13866;SDS011;7003;46.982;15.248;2022-07-06T03:37:01;4.45;;;4.00;;
13866;SDS011;7003;46.982;15.248;2022-07-06T03:39:31;3.83;;;3.53;;
13866;SDS011;7003;46.982;15.248;2022-07-06T03:42:01;4.93;;;4.53;;
13866;SDS011;7003;46.982;15.248;2022-07-06T03:44:29;3.78;;;3.47;;
13866;SDS011;7003;46.982;15.248;2022-07-06T03:46:57;4.15;;;3.75;;
13866;SDS011;7003;46.982;15.248;2022-07-06T03:49:25;4.32;;;4.03;;
13866;SDS011;7003;46.982;15.248;2022-07-06T03:51:56;4.72;;;4.28;;
13866;SDS011;7003;46.982;15.248;2022-07-06T03:54:24;3.95;;;3.65;;
13866;SDS011;7003;46.982;15.248;2022-07-06T03:56:56;7.38;;;5.15;;
13866;SDS011;7003;46.982;15.248;2022-07-06T03:59:24;14.10;;;4.32;;
13866;SDS011;7003;46.982;15.248;2022-07-06T04:04:42;4.45;;;3.38;;
13866;SDS011;7003;46.982;15.248;2022-07-06T04:07:10;7.55;;;3.92;;
13866;SDS011;7003;46.982;15.248;2022-07-06T04:09:42;4.13;;;3.75;;
13866;SDS011;7003;46.982;15.248;2022-07-06T04:12:15;4.68;;;4.22;;
13866;SDS011;7003;46.982;15.248;2022-07-06T04:14:43;4.68;;;4.28;;
13866;SDS011;7003;46.982;15.248;2022-07-06T04:17:15;4.28;;;3.92;;
13866;SDS011;7003;46.982;15.248;2022-07-06T04:20:00;4.93;;;4.47;;
13866;SDS011;7003;46.982;15.248;2022-07-06T04:22:32;5.53;;;3.72;;
13866;SDS011;7003;46.982;15.248;2022-07-06T04:25:01;5.50;;;4.28;;
13866;SDS011;7003;46.982;15.248;2022-07-06T04:27:34;4.55;;;4.15;;
13866;SDS011;7003;46.982;15.248;2022-07-06T04:30:02;4.10;;;3.80;;
13866;SDS011;7003;46.982;15.248;2022-07-06T04:32:34;10.20;;;3.53;;
13866;SDS011;7003;46.982;15.248;2022-07-06T04:35:02;4.03;;;3.72;;
13866;SDS011;7003;46.982;15.248;2022-07-06T04:37:33;4.70;;;3.90;;
13866;SDS011;7003;46.982;15.248;2022-07-06T04:40:02;6.15;;;4.82;;
13866;SDS011;7003;46.982;15.248;2022-07-06T04:42:35;6.07;;;3.75;;
13866;SDS011;7003;46.982;15.248;2022-07-06T04:45:06;5.85;;;3.53;;
13866;SDS011;7003;46.982;15.248;2022-07-06T04:47:39;4.03;;;3.63;;
13866;SDS011;7003;46.982;15.248;2022-07-06T04:50:10;3.88;;;3.55;;
13866;SDS011;7003;46.982;15.248;2022-07-06T04:52:39;4.43;;;4.10;;
13866;SDS011;7003;46.982;15.248;2022-07-06T04:55:09;4.28;;;3.97;;
13866;SDS011;7003;46.982;15.248;2022-07-06T04:57:45;3.78;;;3.53;;
13866;SDS011;7003;46.982;15.248;2022-07-06T05:00:18;4.78;;;4.30;;
13866;SDS011;7003;46.982;15.248;2022-07-06T05:02:54;4.50;;;4.03;;
13866;SDS011;7003;46.982;15.248;2022-07-06T05:05:24;3.72;;;3.53;;
13866;SDS011;7003;46.982;15.248;2022-07-06T05:07:54;4.07;;;3.55;;
13866;SDS011;7003;46.982;15.248;2022-07-06T05:10:27;3.33;;;3.03;;
13866;SDS011;7003;46.982;15.248;2022-07-06T05:12:59;3.88;;;3.45;;
13866;SDS011;7003;46.982;15.248;2022-07-06T05:15:29;3.45;;;3.15;;
13866;SDS011;7003;46.982;15.248;2022-07-06T05:18:01;2.97;;;2.70;;
13866;SDS011;7003;46.982;15.248;2022-07-06T05:20:30;2.75;;;2.55;;
13866;SDS011;7003;46.982;15.248;2022-07-06T05:23:03;4.53;;;2.80;;
13866;SDS011;7003;46.982;15.248;2022-07-06T05:25:35;3.15;;;2.85;;
13866;SDS011;7003;46.982;15.248;2022-07-06T05:28:07;2.72;;;2.53;;
13866;SDS011;7003;46.982;15.248;2022-07-06T05:30:38;4.40;;;3.50;;
13866;SDS011;7003;46.982;15.248;2022-07-06T05:33:08;3.47;;;3.13;;
13866;SDS011;7003;46.982;15.248;2022-07-06T05:35:37;3.05;;;2.83;;
13866;SDS011;7003;46.982;15.248;2022-07-06T05:38:06;3.75;;;2.90;;
13866;SDS011;7003;46.982;15.248;2022-07-06T05:40:36;3.13;;;2.78;;
13866;SDS011;7003;46.982;15.248;2022-07-06T05:43:09;2.50;;;2.25;;
13866;SDS011;7003;46.982;15.248;2022-07-06T05:45:41;3.28;;;2.92;;
13866;SDS011;7003;46.982;15.248;2022-07-06T05:48:11;2.78;;;2.58;;
13866;SDS011;7003;46.982;15.248;2022-07-06T05:50:56;2.85;;;2.00;;
13866;SDS011;7003;46.982;15.248;2022-07-06T05:53:25;10.20;;;2.67;;
13866;SDS011;7003;46.982;15.248;2022-07-06T05:55:54;5.82;;;2.65;;
13866;SDS011;7003;46.982;15.248;2022-07-06T05:58:24;8.55;;;2.58;;
13866;SDS011;7003;46.982;15.248;2022-07-06T06:00:53;3.88;;;2.22;;
13866;SDS011;7003;46.982;15.248;2022-07-06T06:03:24;3.60;;;2.75;;
13866;SDS011;7003;46.982;15.248;2022-07-06T06:05:55;3.08;;;2.60;;
13866;SDS011;7003;46.982;15.248;2022-07-06T06:08:24;3.85;;;2.03;;
13866;SDS011;7003;46.982;15.248;2022-07-06T06:10:54;2.58;;;2.38;;
13866;SDS011;7003;46.982;15.248;2022-07-06T06:13:22;4.65;;;3.10;;
13866;SDS011;7003;46.982;15.248;2022-07-06T06:15:53;2.28;;;2.10;;
13866;SDS011;7003;46.982;15.248;2022-07-06T06:18:26;2.72;;;2.40;;
13866;SDS011;7003;46.982;15.248;2022-07-06T06:20:54;5.15;;;2.92;;
13866;SDS011;7003;46.982;15.248;2022-07-06T06:23:23;4.35;;;2.92;;
13866;SDS011;7003;46.982;15.248;2022-07-06T06:25:53;4.55;;;3.03;;
13866;SDS011;7003;46.982;15.248;2022-07-06T06:28:22;2.15;;;2.05;;
13866;SDS011;7003;46.982;15.248;2022-07-06T06:30:53;2.80;;;2.45;;
13866;SDS011;7003;46.982;15.248;2022-07-06T06:33:24;2.47;;;2.10;;
13866;SDS011;7003;46.982;15.248;2022-07-06T06:35:55;6.10;;;2.60;;
13866;SDS011;7003;46.982;15.248;2022-07-06T06:38:25;4.82;;;2.80;;
13866;SDS011;7003;46.982;15.248;2022-07-06T06:40:58;3.22;;;2.20;;
13866;SDS011;7003;46.982;15.248;2022-07-06T06:43:33;2.95;;;2.65;;
13866;SDS011;7003;46.982;15.248;2022-07-06T06:46:07;2.70;;;2.50;;
13866;SDS011;7003;46.982;15.248;2022-07-06T06:48:36;2.53;;;2.33;;
13866;SDS011;7003;46.982;15.248;2022-07-06T06:51:08;3.67;;;2.35;;
13866;SDS011;7003;46.982;15.248;2022-07-06T06:53:41;2.58;;;2.30;;
13866;SDS011;7003;46.982;15.248;2022-07-06T06:56:09;7.15;;;2.47;;
13866;SDS011;7003;46.982;15.248;2022-07-06T06:58:39;2.55;;;2.20;;
13866;SDS011;7003;46.982;15.248;2022-07-06T07:01:10;2.10;;;2.00;;
13866;SDS011;7003;46.982;15.248;2022-07-06T07:03:42;2.65;;;2.50;;
13866;SDS011;7003;46.982;15.248;2022-07-06T07:06:11;4.03;;;2.72;;
13866;SDS011;7003;46.982;15.248;2022-07-06T07:08:40;2.03;;;1.92;;
13866;SDS011;7003;46.982;15.248;2022-07-06T07:11:09;3.97;;;3.15;;
13866;SDS011;7003;46.982;15.248;2022-07-06T07:13:39;3.38;;;2.10;;
13866;SDS011;7003;46.982;15.248;2022-07-06T07:16:10;4.63;;;2.55;;
13866;SDS011;7003;46.982;15.248;2022-07-06T07:18:41;3.03;;;2.35;;
13866;SDS011;7003;46.982;15.248;2022-07-06T07:21:12;2.90;;;2.53;;
13866;SDS011;7003;46.982;15.248;2022-07-06T07:23:43;2.72;;;2.53;;
13866;SDS011;7003;46.982;15.248;2022-07-06T07:26:17;2.33;;;2.17;;
13866;SDS011;7003;46.982;15.248;2022-07-06T07:28:46;2.85;;;2.55;;
13866;SDS011;7003;46.982;15.248;2022-07-06T07:31:15;2.28;;;2.08;;
13866;SDS011;7003;46.982;15.248;2022-07-06T07:33:44;4.80;;;2.42;;
13866;SDS011;7003;46.982;15.248;2022-07-06T07:36:13;1.98;;;1.80;;
13866;SDS011;7003;46.982;15.248;2022-07-06T07:38:45;3.13;;;2.75;;
13866;SDS011;7003;46.982;15.248;2022-07-06T07:41:16;3.25;;;2.13;;
13866;SDS011;7003;46.982;15.248;2022-07-06T07:43:44;2.72;;;2.33;;
13866;SDS011;7003;46.982;15.248;2022-07-06T07:46:18;2.53;;;2.33;;
13866;SDS011;7003;46.982;15.248;2022-07-06T07:48:47;1.60;;;1.50;;
13866;SDS011;7003;46.982;15.248;2022-07-06T07:51:16;2.08;;;1.88;;
13866;SDS011;7003;46.982;15.248;2022-07-06T07:53:48;4.15;;;1.95;;
13866;SDS011;7003;46.982;15.248;2022-07-06T07:56:16;2.22;;;1.60;;
13866;SDS011;7003;46.982;15.248;2022-07-06T07:58:48;3.15;;;2.22;;
13866;SDS011;7003;46.982;15.248;2022-07-06T08:01:18;4.40;;;2.20;;
13866;SDS011;7003;46.982;15.248;2022-07-06T08:03:54;4.53;;;2.28;;
13866;SDS011;7003;46.982;15.248;2022-07-06T08:06:24;2.80;;;2.22;;
13866;SDS011;7003;46.982;15.248;2022-07-06T08:08:56;4.50;;;2.25;;
13866;SDS011;7003;46.982;15.248;2022-07-06T08:11:25;1.85;;;1.75;;
13866;SDS011;7003;46.982;15.248;2022-07-06T08:13:54;2.58;;;2.38;;
13866;SDS011;7003;46.982;15.248;2022-07-06T08:16:27;2.15;;;1.70;;
13866;SDS011;7003;46.982;15.248;2022-07-06T08:18:57;16.35;;;2.80;;
13866;SDS011;7003;46.982;15.248;2022-07-06T08:21:28;2.10;;;1.90;;
13866;SDS011;7003;46.982;15.248;2022-07-06T08:23:57;3.65;;;2.35;;
13866;SDS011;7003;46.982;15.248;2022-07-06T08:26:29;2.65;;;2.45;;
13866;SDS011;7003;46.982;15.248;2022-07-06T08:29:00;1.90;;;1.80;;
13866;SDS011;7003;46.982;15.248;2022-07-06T08:31:32;3.53;;;2.17;;
13866;SDS011;7003;46.982;15.248;2022-07-06T08:34:04;2.33;;;2.05;;
13866;SDS011;7003;46.982;15.248;2022-07-06T08:36:35;2.92;;;2.05;;
13866;SDS011;7003;46.982;15.248;2022-07-06T08:39:03;3.20;;;2.55;;
13866;SDS011;7003;46.982;15.248;2022-07-06T08:41:31;2.22;;;2.00;;
13866;SDS011;7003;46.982;15.248;2022-07-06T08:44:00;1.95;;;1.85;;
13866;SDS011;7003;46.982;15.248;2022-07-06T08:46:33;3.13;;;2.83;;
13866;SDS011;7003;46.982;15.248;2022-07-06T08:49:05;2.33;;;2.13;;
13866;SDS011;7003;46.982;15.248;2022-07-06T08:51:35;6.18;;;2.85;;
13866;SDS011;7003;46.982;15.248;2022-07-06T08:54:05;2.45;;;2.28;;
13866;SDS011;7003;46.982;15.248;2022-07-06T08:56:34;2.50;;;2.30;;
13866;SDS011;7003;46.982;15.248;2022-07-06T08:59:03;2.13;;;1.92;;
13866;SDS011;7003;46.982;15.248;2022-07-06T09:01:38;2.38;;;2.17;;
13866;SDS011;7003;46.982;15.248;2022-07-06T09:04:07;1.92;;;1.80;;
13866;SDS011;7003;46.982;15.248;2022-07-06T09:06:36;2.13;;;1.88;;
13866;SDS011;7003;46.982;15.248;2022-07-06T09:09:07;1.88;;;1.77;;
13866;SDS011;7003;46.982;15.248;2022-07-06T09:11:40;3.03;;;1.95;;
13866;SDS011;7003;46.982;15.248;2022-07-06T09:14:12;1.90;;;1.77;;
13866;SDS011;7003;46.982;15.248;2022-07-06T09:16:43;2.58;;;2.38;;
13866;SDS011;7003;46.982;15.248;2022-07-06T09:19:13;2.88;;;2.30;;
13866;SDS011;7003;46.982;15.248;2022-07-06T09:21:44;2.22;;;2.03;;
13866;SDS011;7003;46.982;15.248;2022-07-06T09:24:14;2.45;;;2.25;;
13866;SDS011;7003;46.982;15.248;2022-07-06T09:26:46;1.83;;;1.70;;
13866;SDS011;7003;46.982;15.248;2022-07-06T09:29:24;3.60;;;1.85;;
13866;SDS011;7003;46.982;15.248;2022-07-06T09:31:57;2.63;;;1.88;;
13866;SDS011;7003;46.982;15.248;2022-07-06T09:34:40;1.80;;;1.63;;
13866;SDS011;7003;46.982;15.248;2022-07-06T09:37:09;1.80;;;1.70;;
13866;SDS011;7003;46.982;15.248;2022-07-06T09:39:37;1.45;;;1.30;;
13866;SDS011;7003;46.982;15.248;2022-07-06T09:42:06;2.40;;;2.20;;
13866;SDS011;7003;46.982;15.248;2022-07-06T09:44:36;1.92;;;1.50;;
13866;SDS011;7003;46.982;15.248;2022-07-06T09:47:08;3.08;;;1.92;;
13866;SDS011;7003;46.982;15.248;2022-07-06T09:49:38;1.92;;;1.40;;
13866;SDS011;7003;46.982;15.248;2022-07-06T09:52:08;1.83;;;1.58;;
13866;SDS011;7003;46.982;15.248;2022-07-06T09:54:41;1.48;;;1.38;;
13866;SDS011;7003;46.982;15.248;2022-07-06T09:57:10;1.85;;;1.55;;
13866;SDS011;7003;46.982;15.248;2022-07-06T09:59:39;4.38;;;2.20;;
13866;SDS011;7003;46.982;15.248;2022-07-06T10:02:13;1.23;;;1.15;;
13866;SDS011;7003;46.982;15.248;2022-07-06T10:04:42;2.72;;;1.20;;
13866;SDS011;7003;46.982;15.248;2022-07-06T10:07:14;1.90;;;1.25;;
13866;SDS011;7003;46.982;15.248;2022-07-06T10:09:46;2.28;;;1.60;;
13866;SDS011;7003;46.982;15.248;2022-07-06T10:12:16;1.30;;;1.20;;
13866;SDS011;7003;46.982;15.248;2022-07-06T10:14:47;1.75;;;1.60;;
13866;SDS011;7003;46.982;15.248;2022-07-06T10:17:20;3.03;;;1.52;;
13866;SDS011;7003;46.982;15.248;2022-07-06T10:19:52;1.33;;;1.23;;
13866;SDS011;7003;46.982;15.248;2022-07-06T10:22:26;2.45;;;1.48;;
13866;SDS011;7003;46.982;15.248;2022-07-06T10:24:55;3.30;;;1.20;;
13866;SDS011;7003;46.982;15.248;2022-07-06T10:27:28;2.13;;;1.67;;
13866;SDS011;7003;46.982;15.248;2022-07-06T10:29:57;1.40;;;1.30;;
13866;SDS011;7003;46.982;15.248;2022-07-06T10:32:28;2.80;;;1.23;;
13866;SDS011;7003;46.982;15.248;2022-07-06T10:34:57;3.03;;;1.38;;
13866;SDS011;7003;46.982;15.248;2022-07-06T10:37:26;1.80;;;1.35;;
13866;SDS011;7003;46.982;15.248;2022-07-06T10:39:55;1.30;;;1.20;;
13866;SDS011;7003;46.982;15.248;2022-07-06T10:42:42;1.75;;;1.48;;
13866;SDS011;7003;46.982;15.248;2022-07-06T10:45:13;1.50;;;1.40;;
13866;SDS011;7003;46.982;15.248;2022-07-06T10:47:44;1.23;;;1.20;;
13866;SDS011;7003;46.982;15.248;2022-07-06T10:50:13;1.52;;;1.42;;
13866;SDS011;7003;46.982;15.248;2022-07-06T10:52:48;1.15;;;1.10;;
13866;SDS011;7003;46.982;15.248;2022-07-06T10:55:29;2.90;;;1.67;;
13866;SDS011;7003;46.982;15.248;2022-07-06T10:58:00;1.98;;;1.05;;
13866;SDS011;7003;46.982;15.248;2022-07-06T11:00:50;2.17;;;1.45;;
13866;SDS011;7003;46.982;15.248;2022-07-06T11:03:37;1.77;;;1.20;;
13866;SDS011;7003;46.982;15.248;2022-07-06T11:06:09;1.38;;;1.27;;
13866;SDS011;7003;46.982;15.248;2022-07-06T11:08:46;1.70;;;1.55;;
13866;SDS011;7003;46.982;15.248;2022-07-06T11:11:21;1.75;;;1.65;;
13866;SDS011;7003;46.982;15.248;2022-07-06T11:13:52;1.38;;;1.27;;
13866;SDS011;7003;46.982;15.248;2022-07-06T11:16:23;5.55;;;1.45;;
13866;SDS011;7003;46.982;15.248;2022-07-06T11:19:04;1.42;;;1.33;;
13866;SDS011;7003;46.982;15.248;2022-07-06T11:21:37;1.00;;;1.00;;
13866;SDS011;7003;46.982;15.248;2022-07-06T11:24:11;1.00;;;0.93;;
13866;SDS011;7003;46.982;15.248;2022-07-06T11:26:43;7.22;;;1.38;;
13866;SDS011;7003;46.982;15.248;2022-07-06T11:29:12;0.93;;;0.90;;
13866;SDS011;7003;46.982;15.248;2022-07-06T11:31:43;1.15;;;1.15;;
13866;SDS011;7003;46.982;15.248;2022-07-06T11:34:17;2.35;;;1.10;;
13866;SDS011;7003;46.982;15.248;2022-07-06T11:36:49;1.67;;;1.55;;
13866;SDS011;7003;46.982;15.248;2022-07-06T11:39:22;1.38;;;1.27;;
13866;SDS011;7003;46.982;15.248;2022-07-06T11:41:54;1.50;;;1.10;;
13866;SDS011;7003;46.982;15.248;2022-07-06T11:44:25;2.72;;;1.30;;
13866;SDS011;7003;46.982;15.248;2022-07-06T11:46:53;3.05;;;2.00;;
13866;SDS011;7003;46.982;15.248;2022-07-06T11:49:25;1.40;;;1.30;;
13866;SDS011;7003;46.982;15.248;2022-07-06T11:51:53;4.72;;;1.35;;
13866;SDS011;7003;46.982;15.248;2022-07-06T11:54:24;0.90;;;0.90;;
13866;SDS011;7003;46.982;15.248;2022-07-06T11:56:53;3.42;;;1.52;;
13866;SDS011;7003;46.982;15.248;2022-07-06T11:59:24;1.20;;;1.08;;
13866;SDS011;7003;46.982;15.248;2022-07-06T12:01:59;1.15;;;1.02;;
13866;SDS011;7003;46.982;15.248;2022-07-06T12:04:33;1.25;;;1.25;;
13866;SDS011;7003;46.982;15.248;2022-07-06T12:07:04;1.38;;;1.27;;
13866;SDS011;7003;46.982;15.248;2022-07-06T12:09:37;1.48;;;1.30;;
13866;SDS011;7003;46.982;15.248;2022-07-06T12:12:08;1.35;;;1.25;;
13866;SDS011;7003;46.982;15.248;2022-07-06T12:14:38;0.88;;;0.88;;
13866;SDS011;7003;46.982;15.248;2022-07-06T12:17:12;1.20;;;1.10;;
13866;SDS011;7003;46.982;15.248;2022-07-06T12:19:46;3.00;;;1.13;;
13866;SDS011;7003;46.982;15.248;2022-07-06T12:22:24;1.33;;;1.25;;
13866;SDS011;7003;46.982;15.248;2022-07-06T12:24:53;2.10;;;1.30;;
13866;SDS011;7003;46.982;15.248;2022-07-06T12:27:22;0.95;;;0.93;;
13866;SDS011;7003;46.982;15.248;2022-07-06T12:29:51;1.13;;;1.02;;
13866;SDS011;7003;46.982;15.248;2022-07-06T12:32:21;3.63;;;1.65;;
13866;SDS011;7003;46.982;15.248;2022-07-06T12:35:03;3.00;;;1.30;;
13866;SDS011;7003;46.982;15.248;2022-07-06T12:37:33;1.08;;;1.00;;
13866;SDS011;7003;46.982;15.248;2022-07-06T12:40:01;2.17;;;1.48;;
13866;SDS011;7003;46.982;15.248;2022-07-06T12:42:45;1.77;;;1.27;;
13866;SDS011;7003;46.982;15.248;2022-07-06T12:45:14;1.40;;;1.13;;
13866;SDS011;7003;46.982;15.248;2022-07-06T12:47:56;2.38;;;0.98;;
13866;SDS011;7003;46.982;15.248;2022-07-06T12:50:33;1.42;;;1.10;;
13866;SDS011;7003;46.982;15.248;2022-07-06T12:53:04;1.75;;;1.42;;
13866;SDS011;7003;46.982;15.248;2022-07-06T12:55:39;3.25;;;1.50;;
13866;SDS011;7003;46.982;15.248;2022-07-06T12:58:12;1.20;;;1.10;;
13866;SDS011;7003;46.982;15.248;2022-07-06T13:00:51;1.65;;;1.23;;
13866;SDS011;7003;46.982;15.248;2022-07-06T13:03:20;5.15;;;0.95;;
13866;SDS011;7003;46.982;15.248;2022-07-06T13:05:54;1.42;;;1.33;;
13866;SDS011;7003;46.982;15.248;2022-07-06T13:08:22;1.23;;;1.13;;
13866;SDS011;7003;46.982;15.248;2022-07-06T13:10:51;2.72;;;1.30;;
13866;SDS011;7003;46.982;15.248;2022-07-06T13:13:19;1.30;;;1.20;;
13866;SDS011;7003;46.982;15.248;2022-07-06T13:15:51;0.85;;;0.85;;
13866;SDS011;7003;46.982;15.248;2022-07-06T13:18:21;3.25;;;1.25;;
13866;SDS011;7003;46.982;15.248;2022-07-06T13:20:56;1.65;;;1.45;;
13866;SDS011;7003;46.982;15.248;2022-07-06T13:23:26;1.25;;;1.15;;
13866;SDS011;7003;46.982;15.248;2022-07-06T13:25:54;1.15;;;1.05;;
13866;SDS011;7003;46.982;15.248;2022-07-06T13:28:23;1.42;;;1.33;;
13866;SDS011;7003;46.982;15.248;2022-07-06T13:30:51;1.23;;;1.13;;
13866;SDS011;7003;46.982;15.248;2022-07-06T13:33:19;2.05;;;0.85;;
13866;SDS011;7003;46.982;15.248;2022-07-06T13:35:50;1.40;;;1.00;;
13866;SDS011;7003;46.982;15.248;2022-07-06T13:38:21;1.20;;;0.95;;
13866;SDS011;7003;46.982;15.248;2022-07-06T13:40:51;3.08;;;0.98;;
13866;SDS011;7003;46.982;15.248;2022-07-06T13:43:22;2.88;;;1.38;;
13866;SDS011;7003;46.982;15.248;2022-07-06T13:45:51;2.50;;;1.80;;
13866;SDS011;7003;46.982;15.248;2022-07-06T13:48:20;1.48;;;1.33;;
13866;SDS011;7003;46.982;15.248;2022-07-06T13:50:50;1.13;;;0.93;;
13866;SDS011;7003;46.982;15.248;2022-07-06T13:53:21;1.33;;;1.23;;
13866;SDS011;7003;46.982;15.248;2022-07-06T13:55:49;1.45;;;1.35;;
13866;SDS011;7003;46.982;15.248;2022-07-06T13:58:20;0.80;;;0.80;;
13866;SDS011;7003;46.982;15.248;2022-07-06T14:00:49;1.17;;;1.17;;
13866;SDS011;7003;46.982;15.248;2022-07-06T14:03:21;1.52;;;1.42;;
13866;SDS011;7003;46.982;15.248;2022-07-06T14:05:58;3.42;;;0.98;;
13866;SDS011;7003;46.982;15.248;2022-07-06T14:08:30;0.93;;;0.93;;
13866;SDS011;7003;46.982;15.248;2022-07-06T14:10:59;0.90;;;0.90;;
13866;SDS011;7003;46.982;15.248;2022-07-06T14:13:29;3.00;;;1.85;;
13866;SDS011;7003;46.982;15.248;2022-07-06T14:15:58;1.67;;;1.30;;
13866;SDS011;7003;46.982;15.248;2022-07-06T14:18:28;7.28;;;1.70;;
13866;SDS011;7003;46.982;15.248;2022-07-06T14:21:00;1.20;;;1.05;;
13866;SDS011;7003;46.982;15.248;2022-07-06T14:23:32;1.13;;;1.05;;
13866;SDS011;7003;46.982;15.248;2022-07-06T14:26:05;3.42;;;1.52;;
13866;SDS011;7003;46.982;15.248;2022-07-06T14:28:35;1.30;;;1.20;;
13866;SDS011;7003;46.982;15.248;2022-07-06T14:31:05;3.25;;;1.55;;
13866;SDS011;7003;46.982;15.248;2022-07-06T14:33:35;2.38;;;2.03;;
13866;SDS011;7003;46.982;15.248;2022-07-06T14:36:04;1.15;;;1.15;;
13866;SDS011;7003;46.982;15.248;2022-07-06T14:38:35;1.50;;;1.02;;
13866;SDS011;7003;46.982;15.248;2022-07-06T14:41:05;3.85;;;2.13;;
13866;SDS011;7003;46.982;15.248;2022-07-06T14:43:36;1.50;;;1.40;;
13866;SDS011;7003;46.982;15.248;2022-07-06T14:46:07;2.00;;;1.38;;
13866;SDS011;7003;46.982;15.248;2022-07-06T14:48:38;1.23;;;1.23;;
13866;SDS011;7003;46.982;15.248;2022-07-06T14:51:07;1.48;;;1.38;;
13866;SDS011;7003;46.982;15.248;2022-07-06T14:53:41;1.27;;;1.17;;
13866;SDS011;7003;46.982;15.248;2022-07-06T14:56:14;1.50;;;1.25;;
13866;SDS011;7003;46.982;15.248;2022-07-06T14:58:47;1.65;;;1.55;;
13866;SDS011;7003;46.982;15.248;2022-07-06T15:01:19;1.80;;;1.40;;
13866;SDS011;7003;46.982;15.248;2022-07-06T15:03:50;1.30;;;1.23;;
13866;SDS011;7003;46.982;15.248;2022-07-06T15:06:19;1.33;;;1.08;;
13866;SDS011;7003;46.982;15.248;2022-07-06T15:08:52;1.25;;;1.15;;
13866;SDS011;7003;46.982;15.248;2022-07-06T15:11:22;1.83;;;1.60;;
13866;SDS011;7003;46.982;15.248;2022-07-06T15:13:53;4.00;;;1.42;;